21°C Temp
10°C Dewpoint
% Humidity
Temperature
27 KM/H
17 MPH
15 KTS
230°
South West

Wind Speed
Clear
Conditions
Pressure 1018.92 (hPa) - 30.09 (in)
Visibility 6.2 (mi) - 10.0 (km)

Current Conditions
YPPH
Location 20(km)
Metar :YPPH 170830Z 23015KT CAVOK 21/10 Q1019 NOSIG
Thu 17th October 16:30 pm

Airport
  Metar Aviation API Data Provided by https://www.checkwx.com/ PHP scripts by weather34.com ©2019